createdAt,value
2022-12-18T00:00:53.316Z,52.5
2022-12-18T00:01:55.338Z,52.9
2022-12-18T00:02:57.423Z,53
2022-12-18T00:03:59.285Z,53.3
2022-12-18T00:05:01.236Z,53.2
2022-12-18T00:06:03.337Z,52.9
2022-12-18T00:07:06.043Z,52.8
2022-12-18T00:08:09.081Z,52.6
2022-12-18T00:09:09.398Z,52.7
2022-12-18T00:10:11.317Z,53.1
2022-12-18T00:11:13.344Z,53.3
2022-12-18T00:13:17.119Z,53.4
2022-12-18T00:14:18.298Z,53.1
2022-12-18T00:15:20.298Z,52.6
2022-12-18T00:16:22.409Z,52.5
2022-12-18T00:17:24.344Z,52.1
2022-12-18T00:18:26.336Z,52.9
2022-12-18T00:19:28.397Z,52.7
2022-12-18T00:20:30.136Z,52.9
2022-12-18T00:21:31.158Z,53
2022-12-18T00:22:32.219Z,52.9
2022-12-18T00:23:34.204Z,52.6
2022-12-18T00:24:36.277Z,52.2
2022-12-18T00:25:38.297Z,51.7
2022-12-18T00:26:40.322Z,51.7
2022-12-18T00:27:42.357Z,51.8
2022-12-18T00:28:44.156Z,51.8
2022-12-18T00:29:45.179Z,51.7
2022-12-18T00:30:47.232Z,51.5
2022-12-18T00:31:49.332Z,51.7
2022-12-18T00:32:51.340Z,51.8
2022-12-18T00:33:54.169Z,51.5
2022-12-18T00:34:55.317Z,51.8
2022-12-18T00:35:57.336Z,51.9
2022-12-18T00:36:59.488Z,51.9
2022-12-18T00:38:01.294Z,51.7
2022-12-18T00:39:03.216Z,51.6
2022-12-18T00:40:05.175Z,51.7
2022-12-18T00:41:07.336Z,52
2022-12-18T00:42:09.476Z,51.7
2022-12-18T00:43:11.496Z,52
2022-12-18T00:44:13.396Z,52.2
2022-12-18T00:45:15.197Z,52.3
2022-12-18T00:46:17.226Z,52
2022-12-18T00:47:19.236Z,51.8
2022-12-18T00:48:21.396Z,51.2
2022-12-18T00:49:23.317Z,51.1
2022-12-18T00:50:25.444Z,51.9
2022-12-18T00:51:27.357Z,51.8
2022-12-18T00:52:29.197Z,51.7
2022-12-18T00:53:31.367Z,51.5
2022-12-18T00:54:33.166Z,51.3
2022-12-18T00:55:34.136Z,50.9
2022-12-18T00:56:35.308Z,50.6
2022-12-18T00:57:37.360Z,49.7
2022-12-18T00:58:39.298Z,50.1
2022-12-18T00:59:41.217Z,50.1
2022-12-18T01:00:43.452Z,49.7
2022-12-18T01:01:45.509Z,49.9
2022-12-18T01:02:47.449Z,49.9
2022-12-18T01:03:49.159Z,50.1
2022-12-18T01:04:50.189Z,49.6
2022-12-18T01:05:52.336Z,50.1
2022-12-18T01:06:54.357Z,50.1
2022-12-18T01:07:56.396Z,50
2022-12-18T01:08:58.383Z,49.6
2022-12-18T01:10:00.476Z,49.9
2022-12-18T01:11:02.273Z,49.9
2022-12-18T01:12:04.136Z,49.8
2022-12-18T01:13:05.221Z,49.6
2022-12-18T01:14:07.396Z,48.9
2022-12-18T01:15:09.376Z,48.8
2022-12-18T01:16:11.365Z,49
2022-12-18T01:17:13.316Z,48.8
2022-12-18T01:18:15.436Z,48.9
2022-12-18T01:19:17.267Z,49
2022-12-18T01:20:19.337Z,48.8
2022-12-18T01:21:21.256Z,48.7
2022-12-18T01:22:23.316Z,48.7
2022-12-18T01:23:25.497Z,49
2022-12-18T01:24:27.321Z,49.2
2022-12-18T01:25:29.256Z,49.6
2022-12-18T01:26:31.216Z,50.5
2022-12-18T01:27:33.933Z,51.2
2022-12-18T01:28:35.301Z,51.9
2022-12-18T01:29:37.296Z,52.3
2022-12-18T01:30:39.317Z,52.3
2022-12-18T01:31:41.434Z,52.1
2022-12-18T01:32:43.335Z,51.7
2022-12-18T01:33:45.377Z,51.3
2022-12-18T01:34:47.197Z,51.1
2022-12-18T01:35:49.077Z,51.2
2022-12-18T01:36:50.123Z,51.5
2022-12-18T01:37:51.116Z,51.9
2022-12-18T01:38:52.196Z,51.8
2022-12-18T01:39:54.317Z,51.6
2022-12-18T01:40:56.356Z,51.3
2022-12-18T01:41:58.396Z,51.3
2022-12-18T01:43:00.358Z,51.2
2022-12-18T01:44:02.244Z,51
2022-12-18T01:45:04.269Z,50.7
2022-12-18T01:46:06.433Z,50.5
2022-12-18T01:47:08.356Z,50.3
2022-12-18T01:48:10.517Z,50.3
2022-12-18T01:49:12.417Z,50.5
2022-12-18T01:50:14.147Z,50.7
2022-12-18T01:51:15.465Z,50.6
2022-12-18T01:52:18.356Z,50.7
2022-12-18T01:53:20.217Z,50.6
2022-12-18T01:54:22.337Z,50
2022-12-18T01:55:24.337Z,50.3
2022-12-18T01:56:26.356Z,50.7
2022-12-18T01:57:28.177Z,50.6
2022-12-18T01:58:29.156Z,50.6
2022-12-18T01:59:30.216Z,50.4
2022-12-18T02:00:32.397Z,50.2
2022-12-18T02:01:34.384Z,49.8
2022-12-18T02:02:36.457Z,49.6
2022-12-18T02:07:01.318Z,49.5
2022-12-18T02:08:03.355Z,49.5
2022-12-18T02:09:05.397Z,49.4
2022-12-18T02:10:07.436Z,49
2022-12-18T02:11:09.355Z,48.8
2022-12-18T02:12:11.414Z,48.5
2022-12-18T02:13:13.413Z,49
2022-12-18T02:14:15.422Z,49.2
2022-12-18T02:15:17.176Z,49
2022-12-18T02:16:18.312Z,49
2022-12-18T02:17:20.276Z,48.8
2022-12-18T02:18:22.383Z,48.7
2022-12-18T02:19:24.335Z,48.7
2022-12-18T02:20:26.418Z,48.7
2022-12-18T02:21:28.371Z,48.6
2022-12-18T02:22:30.296Z,48.6
2022-12-18T02:23:32.654Z,48.9
2022-12-18T02:24:34.197Z,49
2022-12-18T02:25:35.317Z,49
2022-12-18T02:26:37.375Z,48.7
2022-12-18T02:27:39.395Z,48.8
2022-12-18T02:28:41.676Z,49.4
2022-12-18T02:29:43.464Z,49.7
2022-12-18T02:30:45.363Z,49.7
2022-12-18T02:31:47.174Z,49.5
2022-12-18T02:32:48.275Z,49.4
2022-12-18T02:33:50.215Z,49.3
2022-12-18T02:34:52.697Z,49
2022-12-18T02:35:54.515Z,49
2022-12-18T02:36:56.396Z,48.5
2022-12-18T02:37:58.416Z,48.3
2022-12-18T02:39:00.478Z,48.5
2022-12-18T02:40:02.672Z,48.4
2022-12-18T02:41:04.755Z,47.9
2022-12-18T02:42:06.396Z,48.3
2022-12-18T02:43:08.724Z,48.6
2022-12-18T02:44:10.521Z,48.8
2022-12-18T02:45:12.297Z,48.7
2022-12-18T02:46:14.380Z,49
2022-12-18T02:47:16.215Z,49.2
2022-12-18T02:48:18.239Z,49.1
2022-12-18T02:49:20.216Z,49.1
2022-12-18T02:50:21.515Z,48.5
2022-12-18T02:51:23.975Z,48.9
2022-12-18T02:52:25.819Z,49.1
2022-12-18T02:53:27.424Z,48.4
2022-12-18T02:54:29.356Z,48.2
2022-12-18T02:55:31.275Z,48.1
2022-12-18T02:56:33.218Z,48.1
2022-12-18T02:57:34.305Z,47.9
2022-12-18T02:58:36.416Z,47.8
2022-12-18T02:59:38.556Z,47.9
2022-12-18T03:00:40.456Z,47.9
2022-12-18T03:01:42.765Z,48
2022-12-18T03:02:44.499Z,48.3
2022-12-18T03:03:46.456Z,48.2
2022-12-18T03:04:48.175Z,47.9
2022-12-18T03:05:49.355Z,48.3
2022-12-18T03:06:51.291Z,48.5
2022-12-18T03:07:53.423Z,48.5
2022-12-18T03:08:55.462Z,48.5
2022-12-18T03:09:57.315Z,48.3
2022-12-18T03:10:59.376Z,48.2
2022-12-18T03:12:01.400Z,48.1
2022-12-18T03:13:03.525Z,48.3
2022-12-18T03:14:05.255Z,48.4
2022-12-18T03:15:07.516Z,48.3
2022-12-18T03:16:09.475Z,48
2022-12-18T03:17:12.019Z,48.2
2022-12-18T03:18:13.455Z,48.5
2022-12-18T03:19:15.296Z,48.4
2022-12-18T03:20:17.416Z,48.3
2022-12-18T03:21:19.286Z,48.6
2022-12-18T03:22:21.239Z,48.8
2022-12-18T03:23:26.212Z,48.8
2022-12-18T03:24:25.576Z,48.5
2022-12-18T03:25:27.334Z,48.4
2022-12-18T03:26:29.255Z,48.2
2022-12-18T03:27:31.436Z,48.4
2022-12-18T03:28:33.476Z,48.3
2022-12-18T03:29:35.194Z,48.3
2022-12-18T03:30:36.472Z,48.4
2022-12-18T03:31:38.415Z,48.5
2022-12-18T03:32:40.435Z,48.3
2022-12-18T03:33:42.874Z,48.1
2022-12-18T03:34:44.396Z,48.7
2022-12-18T03:35:46.215Z,49.2
2022-12-18T03:36:47.283Z,49.5
2022-12-18T03:37:48.682Z,49.5
2022-12-18T03:38:50.173Z,49.3
2022-12-18T03:39:51.179Z,48.7
2022-12-18T03:40:52.395Z,48.8
2022-12-18T03:41:54.455Z,49.3
2022-12-18T03:42:56.457Z,49.2
2022-12-18T03:43:58.294Z,49.2
2022-12-18T03:45:00.397Z,48.3
2022-12-18T03:46:02.703Z,47.8
2022-12-18T03:47:04.303Z,48
2022-12-18T03:48:06.277Z,48.1
2022-12-18T03:49:08.436Z,48.6
2022-12-18T03:50:12.895Z,48.9
2022-12-18T03:51:13.456Z,48.8
2022-12-18T03:52:15.474Z,49.1
2022-12-18T03:53:17.563Z,49.1
2022-12-18T03:54:19.263Z,49.2
2022-12-18T03:55:21.243Z,49.3
2022-12-18T03:56:23.456Z,49.2
2022-12-18T03:57:25.655Z,49.2
2022-12-18T03:58:27.416Z,49.1
2022-12-18T03:59:29.255Z,48.9
2022-12-18T04:00:31.655Z,49
2022-12-18T04:01:33.625Z,49
2022-12-18T04:02:35.421Z,48.8
2022-12-18T04:03:37.471Z,48.6
2022-12-18T04:04:44.495Z,48.3
2022-12-18T04:05:46.499Z,47.8
2022-12-18T04:06:48.515Z,47.9
2022-12-18T04:07:50.217Z,47.8
2022-12-18T04:08:51.277Z,47.9
2022-12-18T04:09:53.359Z,48
2022-12-18T04:10:55.437Z,47.9
2022-12-18T04:11:57.475Z,47.9
2022-12-18T04:12:59.399Z,48
2022-12-18T04:14:04.732Z,48
2022-12-18T04:15:03.355Z,48
2022-12-18T04:16:05.727Z,47.8
2022-12-18T04:17:07.540Z,48.3
2022-12-18T04:18:09.489Z,49
2022-12-18T04:19:11.497Z,49.2
2022-12-18T04:20:13.456Z,49.6
2022-12-18T04:21:15.196Z,49.6
2022-12-18T04:22:16.298Z,49.4
2022-12-18T04:23:18.335Z,49.5
2022-12-18T04:24:20.335Z,49.6
2022-12-18T04:25:22.435Z,49.5
2022-12-18T04:26:24.295Z,49.6
2022-12-18T04:27:26.477Z,49.7
2022-12-18T04:28:28.575Z,49.9
2022-12-18T04:29:30.416Z,50
2022-12-18T04:30:32.798Z,49.5
2022-12-18T04:31:34.537Z,49.8
2022-12-18T04:32:36.382Z,49.6
2022-12-18T04:33:38.831Z,49.9
2022-12-18T04:34:40.399Z,50
2022-12-18T04:35:42.495Z,49.9
2022-12-18T04:36:45.196Z,50
2022-12-18T04:37:46.438Z,50.1
2022-12-18T04:38:48.439Z,50
2022-12-18T04:39:50.231Z,49.8
2022-12-18T04:40:51.281Z,49.6
2022-12-18T04:41:53.464Z,49.2
2022-12-18T04:42:55.561Z,49.2
2022-12-18T04:43:57.458Z,49
2022-12-18T04:44:59.437Z,48.6
2022-12-18T04:46:01.699Z,48.4
2022-12-18T04:47:03.424Z,47.8
2022-12-18T04:48:05.731Z,47.9
2022-12-18T04:49:07.435Z,48.1
2022-12-18T04:50:09.477Z,48.2
2022-12-18T04:51:11.604Z,48.4
2022-12-18T04:52:13.795Z,48.5
2022-12-18T04:53:15.362Z,48.6
2022-12-18T04:54:17.376Z,48.5
2022-12-18T04:55:19.516Z,48.5
2022-12-18T04:56:21.220Z,48.4
2022-12-18T04:57:22.495Z,48.5
2022-12-18T04:58:24.475Z,48.5
2022-12-18T04:59:26.696Z,49.2
2022-12-18T05:00:28.576Z,49.6
2022-12-18T05:01:34.436Z,49.5
2022-12-18T05:02:32.620Z,49.3
2022-12-18T05:03:34.540Z,49.5
2022-12-18T05:04:36.282Z,49.7
2022-12-18T05:05:38.636Z,49.6
2022-12-18T05:06:40.396Z,49.5
2022-12-18T05:07:42.476Z,49.3
2022-12-18T05:08:44.435Z,49.2
2022-12-18T05:09:46.691Z,49.3
2022-12-18T05:10:48.536Z,49.1
2022-12-18T05:11:50.257Z,49
2022-12-18T05:12:51.315Z,48.9
2022-12-18T05:13:53.426Z,48.7
2022-12-18T05:14:55.435Z,48.4
2022-12-18T05:15:57.520Z,48.3
2022-12-18T05:17:01.156Z,48.1
2022-12-18T05:18:01.378Z,48
2022-12-18T05:19:03.508Z,47.8
2022-12-18T05:20:05.595Z,47.7
2022-12-18T05:21:07.555Z,47.6
2022-12-18T05:22:09.476Z,47.6
2022-12-18T05:23:11.478Z,47.6
2022-12-18T05:24:13.476Z,47.6
2022-12-18T05:25:15.363Z,47.6
2022-12-18T05:26:17.395Z,47.5
2022-12-18T05:27:19.516Z,47.5
2022-12-18T05:28:21.235Z,47.5
2022-12-18T05:29:22.340Z,47.5
2022-12-18T05:30:24.495Z,47.5
2022-12-18T05:31:26.518Z,47.7
2022-12-18T05:32:28.525Z,47.8
2022-12-18T05:33:30.520Z,47.9
2022-12-18T05:34:32.417Z,47.7
2022-12-18T05:35:34.435Z,47.5
2022-12-18T05:36:36.280Z,47.6
2022-12-18T05:37:42.640Z,47.5
2022-12-18T05:38:38.257Z,47.4
2022-12-18T05:39:39.259Z,47.7
2022-12-18T05:40:40.255Z,48.1
2022-12-18T05:41:41.336Z,48.8
2022-12-18T05:42:43.515Z,49.2
2022-12-18T05:43:45.971Z,49.2
2022-12-18T05:44:47.276Z,49.3
2022-12-18T05:45:48.515Z,49.4
2022-12-18T05:46:50.377Z,49.3
2022-12-18T05:47:52.480Z,49.5
2022-12-18T05:48:54.428Z,49.8
2022-12-18T05:49:56.801Z,49.6
2022-12-18T05:50:58.515Z,50.1
2022-12-18T05:52:00.475Z,50.6
2022-12-18T05:53:02.276Z,50.9
2022-12-18T05:54:03.280Z,51
2022-12-18T05:55:04.336Z,51.2
2022-12-18T05:56:06.415Z,51.3
2022-12-18T05:57:08.536Z,51.6
2022-12-18T05:58:10.487Z,51.6
2022-12-18T05:59:12.480Z,51.2
2022-12-18T06:00:14.555Z,51
2022-12-18T06:01:16.447Z,50.7
2022-12-18T06:02:18.454Z,50.2
2022-12-18T06:03:20.451Z,50.1
2022-12-18T06:04:21.343Z,50.1
2022-12-18T06:05:23.565Z,49.8
2022-12-18T06:06:25.735Z,49.4
2022-12-18T06:07:27.333Z,49.1
2022-12-18T06:08:29.458Z,48.9
2022-12-18T06:09:31.335Z,49
2022-12-18T06:10:33.356Z,49
2022-12-18T06:11:35.976Z,48.7
2022-12-18T06:12:37.495Z,48.8
2022-12-18T06:13:40.026Z,48.9
2022-12-18T06:14:41.535Z,48.6
2022-12-18T06:15:43.645Z,48.5
2022-12-18T06:16:46.326Z,48.3
2022-12-18T06:17:49.049Z,47.3
2022-12-18T06:18:50.323Z,47.6
2022-12-18T06:19:52.396Z,47.7
2022-12-18T06:20:54.522Z,47.4
2022-12-18T06:21:56.837Z,47.6
2022-12-18T06:22:58.396Z,47.7
2022-12-18T06:24:00.275Z,47.6
2022-12-18T06:25:01.264Z,48
2022-12-18T06:26:02.577Z,48.5
2022-12-18T06:27:04.965Z,48.9
2022-12-18T06:28:06.396Z,48.8
2022-12-18T06:29:08.495Z,48.4
2022-12-18T06:30:10.398Z,48.4
2022-12-18T06:31:13.026Z,48.7
2022-12-18T06:32:14.476Z,48.8
2022-12-18T06:33:16.456Z,48.7
2022-12-18T06:34:19.444Z,48.5
2022-12-18T06:35:21.412Z,48.6
2022-12-18T06:36:24.383Z,49
2022-12-18T06:37:26.204Z,49.2
2022-12-18T06:38:27.324Z,49.8
2022-12-18T06:39:29.354Z,50
2022-12-18T06:40:31.455Z,49.9
2022-12-18T06:41:34.063Z,49.7
2022-12-18T06:42:35.595Z,49.5
2022-12-18T06:43:37.835Z,49.9
2022-12-18T06:44:39.537Z,50.2
2022-12-18T06:45:41.503Z,50.3
2022-12-18T06:46:43.575Z,50.4
2022-12-18T06:47:45.316Z,50
2022-12-18T06:48:47.116Z,50.6
2022-12-18T06:49:48.416Z,50.9
2022-12-18T06:50:50.347Z,50.8
2022-12-18T06:51:52.672Z,50.7
2022-12-18T06:52:54.521Z,50.6
2022-12-18T06:53:56.413Z,50.5
2022-12-18T06:54:59.458Z,50.4
2022-12-18T06:56:05.168Z,50.1
2022-12-18T06:57:03.738Z,50.2
2022-12-18T06:58:05.476Z,50.3
2022-12-18T06:59:07.575Z,50.2
2022-12-18T07:00:09.606Z,50.1
2022-12-18T07:01:11.942Z,50
2022-12-18T07:02:14.582Z,49.8
2022-12-18T07:03:16.439Z,50
2022-12-18T07:04:18.417Z,50.1
2022-12-18T07:05:20.381Z,50.2
2022-12-18T07:06:22.616Z,50.1
2022-12-18T07:07:24.621Z,49.8
2022-12-18T07:08:26.435Z,49.7
2022-12-18T07:09:31.180Z,50
2022-12-18T07:10:33.155Z,50
2022-12-18T07:11:34.417Z,50
2022-12-18T07:12:36.336Z,49.8
2022-12-18T07:13:39.284Z,49.8
2022-12-18T07:14:41.216Z,50.3
2022-12-18T07:15:42.577Z,50.7
2022-12-18T07:16:44.624Z,50.9
2022-12-18T07:17:46.336Z,50.9
2022-12-18T07:18:48.595Z,51.1
2022-12-18T07:19:50.863Z,51.3
2022-12-18T07:20:52.578Z,51.4
2022-12-18T07:21:54.577Z,51.3
2022-12-18T07:22:56.616Z,51.3
2022-12-18T07:23:58.396Z,51.3
2022-12-18T07:25:00.596Z,51.2
2022-12-18T07:26:02.357Z,51.2
2022-12-18T07:27:04.517Z,51
2022-12-18T07:28:06.416Z,51.1
2022-12-18T07:29:08.675Z,51.2
2022-12-18T07:30:10.524Z,51.3
2022-12-18T07:31:12.419Z,51.2
2022-12-18T07:32:14.521Z,50.9
2022-12-18T07:33:16.837Z,50.8
2022-12-18T07:34:18.357Z,50.4
2022-12-18T07:35:24.708Z,50.2
2022-12-18T07:36:22.417Z,49.9
2022-12-18T07:37:24.250Z,50
2022-12-18T07:38:26.283Z,49.9
2022-12-18T07:39:27.289Z,49.6
2022-12-18T07:40:28.458Z,49.6
2022-12-18T07:41:30.595Z,49.7
2022-12-18T07:42:32.417Z,49.6
2022-12-18T07:43:34.383Z,49.8
2022-12-18T07:44:36.435Z,50.1
2022-12-18T07:45:38.594Z,50.4
2022-12-18T07:46:40.281Z,50.2
2022-12-18T07:47:41.559Z,50.1
2022-12-18T07:48:44.311Z,49.3
2022-12-18T07:49:45.623Z,50.4
2022-12-18T07:50:47.728Z,50.6
2022-12-18T07:51:49.395Z,50.5
2022-12-18T07:52:52.019Z,50.5
2022-12-18T07:53:54.442Z,50.3
2022-12-18T07:54:55.511Z,50.1
2022-12-18T07:56:25.281Z,49.9
2022-12-18T07:56:59.296Z,49.8
2022-12-18T07:58:01.211Z,49.3
2022-12-18T07:59:03.160Z,49
2022-12-18T08:00:04.468Z,48.6
2022-12-18T08:01:07.413Z,48.6
2022-12-18T08:02:09.555Z,48.7
2022-12-18T08:03:11.787Z,49
2022-12-18T08:04:13.508Z,49
2022-12-18T08:05:16.095Z,49.2
2022-12-18T08:06:18.190Z,49.3
2022-12-18T08:07:19.456Z,49.3
2022-12-18T08:08:21.995Z,49.1
2022-12-18T08:09:23.880Z,48.7
2022-12-18T08:10:25.823Z,49
2022-12-18T08:11:27.624Z,49.1
2022-12-18T08:12:29.986Z,49.1
2022-12-18T08:13:32.216Z,49.3
2022-12-18T08:14:33.508Z,49.4
2022-12-18T08:15:35.302Z,49.6
2022-12-18T08:16:37.010Z,49.9
2022-12-18T08:17:38.556Z,50.2
2022-12-18T08:18:41.557Z,50.3
2022-12-18T08:19:43.376Z,50.2
2022-12-18T08:20:45.515Z,50.2
2022-12-18T08:21:47.561Z,50.3
2022-12-18T08:22:49.380Z,50
2022-12-18T08:23:51.947Z,50.3
2022-12-18T08:24:53.560Z,50.5
2022-12-18T08:25:55.396Z,50.7
2022-12-18T08:27:21.157Z,50.8
2022-12-18T08:27:59.918Z,50.6
2022-12-18T08:29:01.836Z,50.5
2022-12-18T08:30:03.375Z,50.5
2022-12-18T08:31:05.502Z,50.7
2022-12-18T08:32:07.539Z,50.8
2022-12-18T08:33:09.548Z,50.7
2022-12-18T08:34:11.505Z,50.8
2022-12-18T08:35:15.544Z,50.9
2022-12-18T08:36:15.376Z,51.1
2022-12-18T08:37:17.537Z,51.1
2022-12-18T08:38:19.615Z,51.2
2022-12-18T08:39:21.404Z,51.2
2022-12-18T08:40:23.602Z,51
2022-12-18T08:41:26.156Z,50.9
2022-12-18T08:42:27.899Z,51.1
2022-12-18T08:43:30.155Z,51.1
2022-12-18T08:44:31.563Z,51.1
2022-12-18T08:45:33.656Z,51.1
2022-12-18T08:46:35.720Z,51
2022-12-18T08:47:37.720Z,51
2022-12-18T08:48:41.257Z,51.2
2022-12-18T08:49:42.641Z,51.2
2022-12-18T08:50:44.427Z,50.9
2022-12-18T08:51:46.501Z,50.2
2022-12-18T08:52:48.593Z,49.7
2022-12-18T08:53:50.536Z,49.4
2022-12-18T08:54:52.441Z,49.4
2022-12-18T08:55:55.069Z,49.2
2022-12-18T08:56:56.457Z,49.2
2022-12-18T08:57:58.470Z,49.3
2022-12-18T08:59:00.543Z,49.3
2022-12-18T09:00:02.582Z,49.3
2022-12-18T09:01:04.531Z,49.1
2022-12-18T09:02:08.260Z,49.3
2022-12-18T09:03:10.089Z,48.6
2022-12-18T09:04:11.485Z,48.8
2022-12-18T09:05:13.773Z,49
2022-12-18T09:06:15.442Z,49.3
2022-12-18T09:07:17.486Z,49.4
2022-12-18T09:08:19.616Z,48.9
2022-12-18T09:09:21.454Z,48.5
2022-12-18T09:10:23.468Z,48.5
2022-12-18T09:11:26.061Z,49.1
2022-12-18T09:12:28.228Z,49.3
2022-12-18T09:13:29.594Z,49.4
2022-12-18T09:14:31.496Z,49.3
2022-12-18T09:15:33.526Z,49.2
2022-12-18T09:16:35.463Z,49.2
2022-12-18T09:17:37.000Z,49.1
2022-12-18T09:18:38.820Z,48.9
2022-12-18T09:19:40.557Z,48.8
2022-12-18T09:20:42.438Z,49.2
2022-12-18T09:21:47.937Z,49.4
2022-12-18T09:22:46.616Z,49.4
2022-12-18T09:23:48.510Z,49.4
2022-12-18T09:24:51.314Z,49.4
2022-12-18T09:25:52.459Z,49.4
2022-12-18T09:26:57.754Z,49.3
2022-12-18T09:27:57.515Z,49.1
2022-12-18T09:28:59.508Z,49.1
2022-12-18T09:30:01.555Z,49
2022-12-18T09:31:03.637Z,49.4
2022-12-18T09:32:05.530Z,49.5
2022-12-18T09:33:07.559Z,49.3
2022-12-18T09:34:09.517Z,48.9
2022-12-18T09:35:11.808Z,48.7
2022-12-18T09:36:13.530Z,48.5
2022-12-18T09:37:15.677Z,48.7
2022-12-18T09:38:17.994Z,48.9
2022-12-18T09:39:19.599Z,49.1
2022-12-18T09:40:22.889Z,48.8
2022-12-18T09:41:24.543Z,48.7
2022-12-18T09:42:26.587Z,49.7
2022-12-18T09:43:29.156Z,50.3
2022-12-18T09:44:30.819Z,50.8
2022-12-18T09:45:32.965Z,50.9
2022-12-18T09:46:34.558Z,50.9
2022-12-18T09:47:36.496Z,50.6
2022-12-18T09:48:39.695Z,50.1
2022-12-18T09:49:41.545Z,49.6
2022-12-18T09:50:43.460Z,49.4
2022-12-18T09:51:45.455Z,49.3
2022-12-18T09:52:47.658Z,48.5
2022-12-18T09:53:50.576Z,48.7
2022-12-18T09:54:52.417Z,48
2022-12-18T09:55:54.550Z,48.3
2022-12-18T09:56:56.512Z,48.4
2022-12-18T09:57:58.834Z,48.9
2022-12-18T09:59:00.780Z,48.6
2022-12-18T10:00:02.636Z,49.9
2022-12-18T10:01:05.280Z,50.5
2022-12-18T10:02:06.496Z,50.7
2022-12-18T10:03:08.773Z,50.8
2022-12-18T10:04:10.423Z,51
2022-12-18T10:05:12.695Z,51.3
2022-12-18T10:06:15.005Z,51.1
2022-12-18T10:07:16.698Z,50.6
2022-12-18T10:08:18.513Z,50.4
2022-12-18T10:09:21.435Z,49.8
2022-12-18T10:10:23.588Z,49.5
2022-12-18T10:11:25.416Z,48.9
2022-12-18T10:12:27.553Z,48.7
2022-12-18T10:13:32.314Z,48.5
2022-12-18T10:14:33.495Z,48.8
2022-12-18T10:15:36.364Z,48.8
2022-12-18T10:16:37.576Z,49.1
2022-12-18T10:17:39.458Z,49.5
2022-12-18T10:18:41.835Z,49.8
2022-12-18T10:19:43.415Z,49.9
2022-12-18T10:20:45.389Z,50.1
2022-12-18T10:21:46.505Z,50.2
2022-12-18T10:22:48.480Z,50.1
2022-12-18T10:23:51.452Z,49.9
2022-12-18T10:24:53.315Z,49.2
2022-12-18T10:25:54.356Z,49.6
2022-12-18T10:26:55.459Z,49.5
2022-12-18T10:27:57.558Z,49.4
2022-12-18T10:29:05.223Z,49.7
2022-12-18T10:30:01.475Z,49.3
2022-12-18T10:31:03.571Z,49.6
2022-12-18T10:32:05.580Z,49.4
2022-12-18T10:33:07.760Z,48.9
2022-12-18T10:34:10.543Z,49.5
2022-12-18T10:35:12.521Z,49.9
2022-12-18T10:36:15.038Z,50.2
2022-12-18T10:37:16.727Z,50.3
2022-12-18T10:38:18.642Z,50.8
2022-12-18T10:39:20.817Z,50.8
2022-12-18T10:40:22.903Z,50.6
2022-12-18T10:41:24.530Z,50.6
2022-12-18T10:42:26.787Z,50.9
2022-12-18T10:43:29.989Z,50.9
2022-12-18T10:44:32.207Z,50.7
2022-12-18T10:45:36.478Z,50.6
2022-12-18T10:46:38.612Z,50.2
2022-12-18T10:47:41.632Z,50.3
2022-12-18T10:48:43.899Z,50.7
2022-12-18T10:49:45.595Z,50.6
2022-12-18T10:51:10.166Z,50.2
2022-12-18T10:51:49.554Z,49.7
2022-12-18T10:52:52.497Z,49.7
2022-12-18T10:53:54.775Z,49.5
2022-12-18T10:54:57.193Z,49.4
2022-12-18T10:55:58.426Z,49.3
2022-12-18T10:57:00.618Z,49.1
2022-12-18T10:58:02.596Z,49.4
2022-12-18T10:59:04.518Z,49.5
2022-12-18T11:00:06.639Z,50
2022-12-18T11:01:08.617Z,50.2
2022-12-18T11:02:11.663Z,50.5
2022-12-18T11:03:13.668Z,50.9
2022-12-18T11:04:15.676Z,50.8
2022-12-18T11:05:17.376Z,50.6
2022-12-18T11:06:20.259Z,50.5
2022-12-18T11:07:22.040Z,50.7
2022-12-18T11:08:23.521Z,50.7
2022-12-18T11:09:25.636Z,50.6
2022-12-18T11:10:27.462Z,50.5
2022-12-18T11:11:30.400Z,50.6
2022-12-18T11:12:31.577Z,50.3
2022-12-18T11:13:33.695Z,49.8
2022-12-18T11:14:35.714Z,49.5
2022-12-18T11:15:37.886Z,49.3
2022-12-18T11:16:39.541Z,49
2022-12-18T11:17:41.755Z,48.8
2022-12-18T11:18:43.938Z,48.6
2022-12-18T11:19:45.674Z,48.5
2022-12-18T11:20:47.976Z,48.9
2022-12-18T11:21:50.037Z,48.9
2022-12-18T11:22:52.079Z,49
2022-12-18T11:23:54.618Z,49.2
2022-12-18T11:25:22.779Z,49.3
2022-12-18T11:25:58.599Z,49.4
2022-12-18T11:27:00.641Z,49.4
2022-12-18T11:28:02.555Z,49.1
2022-12-18T11:29:04.619Z,48.5
2022-12-18T11:30:06.615Z,49.1
2022-12-18T11:31:08.770Z,49.4
2022-12-18T11:32:10.999Z,49.6
2022-12-18T11:33:13.696Z,48.8
2022-12-18T11:34:30.967Z,48.6
2022-12-18T11:35:17.539Z,48.2
2022-12-18T11:36:19.610Z,48.5
2022-12-18T11:37:21.515Z,48.6
2022-12-18T11:38:23.595Z,48.6
2022-12-18T11:39:25.375Z,49.1
2022-12-18T11:40:26.439Z,49.4
2022-12-18T11:41:29.644Z,50.3
2022-12-18T11:42:31.476Z,51
2022-12-18T11:43:33.576Z,51.6
2022-12-18T11:44:35.654Z,51.5
2022-12-18T11:45:38.640Z,51.7
2022-12-18T11:46:40.737Z,51.9
2022-12-18T11:47:42.579Z,51.8
2022-12-18T11:48:44.534Z,51.8
2022-12-18T11:49:46.496Z,51.4
2022-12-18T11:50:48.609Z,51.5
2022-12-18T11:51:50.574Z,51.1
2022-12-18T11:52:56.681Z,51.2
2022-12-18T11:53:55.837Z,51.2
2022-12-18T11:54:58.323Z,51.6
2022-12-18T11:55:59.509Z,51.8
2022-12-18T11:57:01.647Z,52.1
2022-12-18T11:58:03.889Z,52.3
2022-12-18T11:59:05.597Z,52.4
2022-12-18T12:00:07.717Z,52
2022-12-18T12:01:09.491Z,51.3
2022-12-18T12:02:12.151Z,51.2
2022-12-18T12:03:13.670Z,51
2022-12-18T12:04:15.692Z,51.3
2022-12-18T12:05:17.615Z,51.7
2022-12-18T12:06:20.666Z,51.8
2022-12-18T12:07:22.589Z,52.2
2022-12-18T12:08:24.515Z,52.5
2022-12-18T12:09:27.063Z,52.4
2022-12-18T12:10:28.948Z,52.3
2022-12-18T12:11:30.655Z,52.1
2022-12-18T12:12:32.514Z,51.8
2022-12-18T12:13:34.576Z,51.8
2022-12-18T12:14:36.615Z,52
2022-12-18T12:15:38.575Z,52.1
2022-12-18T12:16:40.720Z,51.8
2022-12-18T12:17:42.719Z,51
2022-12-18T12:18:44.557Z,51
2022-12-18T12:19:46.676Z,51.1
2022-12-18T12:20:48.609Z,51
2022-12-18T12:21:50.643Z,51.4
2022-12-18T12:22:52.795Z,51.4
2022-12-18T12:23:54.499Z,51.1
2022-12-18T12:24:57.575Z,50.5
2022-12-18T12:26:00.635Z,50
2022-12-18T12:27:02.696Z,49.8
2022-12-18T12:28:04.717Z,49.9
2022-12-18T12:29:08.276Z,50.6
2022-12-18T12:30:08.667Z,51.4
2022-12-18T12:31:09.460Z,51.8
2022-12-18T12:32:10.576Z,51.6
2022-12-18T12:33:12.696Z,51.9
2022-12-18T12:34:14.480Z,51.8
2022-12-18T12:35:17.455Z,51.6
2022-12-18T12:36:19.978Z,51
2022-12-18T12:37:22.048Z,50.8
2022-12-18T12:38:23.755Z,50.1
2022-12-18T12:39:25.616Z,50.3
2022-12-18T12:40:51.024Z,49.4
2022-12-18T12:41:29.469Z,49.9
2022-12-18T12:42:30.620Z,49.8
2022-12-18T12:43:32.671Z,50.2
2022-12-18T12:44:34.467Z,50.4
2022-12-18T12:45:37.510Z,50
2022-12-18T12:46:39.956Z,50.4
2022-12-18T12:47:41.454Z,50.6
2022-12-18T12:48:43.311Z,50.7
2022-12-18T12:49:44.476Z,50.4
2022-12-18T12:50:46.797Z,50.3
2022-12-18T12:51:48.736Z,50.5
2022-12-18T12:52:51.156Z,50.4
2022-12-18T12:53:52.596Z,50.1
2022-12-18T12:54:55.195Z,50.3
2022-12-18T12:55:56.582Z,50.1
2022-12-18T12:56:58.715Z,49.9
2022-12-18T12:58:01.135Z,49.6
2022-12-18T12:59:02.940Z,49.8
2022-12-18T13:00:05.511Z,50.1
2022-12-18T13:01:08.168Z,50.3
2022-12-18T13:02:09.746Z,50.4
2022-12-18T13:03:12.337Z,50.4
2022-12-18T13:04:15.422Z,50.4
2022-12-18T13:05:17.653Z,50.4
2022-12-18T13:06:19.831Z,50.1
2022-12-18T13:07:21.807Z,50.1
2022-12-18T13:08:23.656Z,50.1
2022-12-18T13:09:26.056Z,50.1
2022-12-18T13:10:27.886Z,49.8
2022-12-18T13:11:29.843Z,49.3
2022-12-18T13:12:33.436Z,49
2022-12-18T13:13:33.681Z,48.6
2022-12-18T13:14:35.656Z,48.8
2022-12-18T13:15:38.399Z,49.1
2022-12-18T13:16:39.655Z,49.3
2022-12-18T13:17:42.000Z,49.5
2022-12-18T13:18:44.379Z,49.7
2022-12-18T13:19:46.629Z,50.3
2022-12-18T13:20:52.618Z,51.3
2022-12-18T13:21:50.676Z,52
2022-12-18T13:22:52.648Z,52.5
2022-12-18T13:23:55.153Z,52.6
2022-12-18T13:24:56.617Z,52.7
2022-12-18T13:25:58.640Z,52.7
2022-12-18T13:27:02.001Z,52.7
2022-12-18T13:28:03.711Z,52.5
2022-12-18T13:29:05.559Z,52.9
2022-12-18T13:30:07.763Z,53.2
2022-12-18T13:31:09.576Z,53.6
2022-12-18T13:32:14.736Z,53.5
2022-12-18T13:33:13.737Z,54
2022-12-18T13:34:31.629Z,53.7
2022-12-18T13:35:17.866Z,53.5
2022-12-18T13:36:19.496Z,53.3
2022-12-18T13:37:21.632Z,52.9
2022-12-18T13:38:24.033Z,52.7
2022-12-18T13:39:30.183Z,52.3
2022-12-18T13:40:27.796Z,52.5
2022-12-18T13:41:30.158Z,52.3
2022-12-18T13:42:31.895Z,52.2
2022-12-18T13:43:33.536Z,52.4
2022-12-18T13:44:40.184Z,52.4
2022-12-18T13:45:37.669Z,52.1
2022-12-18T13:46:39.580Z,51.9
2022-12-18T13:47:41.905Z,51.6
2022-12-18T13:48:44.434Z,51.6
2022-12-18T13:49:46.532Z,51.4
2022-12-18T13:50:49.520Z,50.9
2022-12-18T13:51:50.897Z,50.3
2022-12-18T13:52:53.917Z,50.4
2022-12-18T13:53:56.186Z,50.5
2022-12-18T13:54:57.840Z,50.2